KMIA Airport Information

Runway Information
Runway 08L Length 8600 ft width 150 ft
Elevation 8 ft Threshold 0 ft Heading 87
Runway 26R Length 8600 ft Width 150 ft
Elevation 8 ft Threshold 0 ft Heading 267
Runway 08R Length 10506 ft width 200 ft
Elevation 8 ft Threshold 0 ft Heading 87
Runway 26L Length 10506 ft Width 200 ft
Elevation 8 ft Threshold 0 ft Heading 267
Runway 09 Length 13000 ft width 150 ft
Elevation 7 ft Threshold 1350 ft Heading 87
Runway 27 Length 13000 ft Width 150 ft
Elevation 8 ft Threshold 1270 ft Heading 267
Runway 12 Length 9354 ft width 150 ft
Elevation 8 ft Threshold 0 ft Heading 119
Runway 30 Length 9354 ft Width 150 ft
Elevation 8 ft Threshold 939 ft Heading 299
Airport Frequencies
Type APP Name APP Frequency 120.5 MHZ
Type ATIS Name ATIS Frequency 119.15 MHZ
Type CLD Name CLNC DEL Frequency 120.35 MHZ
Type DEP Name DEP Frequency 119.45 MHZ
Type GND Name GND Frequency 121.8 MHZ
Type TWR Name TWR Frequency 118.3 MHZ
Type UNIC Name UNICOM Frequency 123 MHZ
Airport Navaids
Type VORTAC Name Dolphin Frequency 113900 KHZ
Type NDB Name Keyes Frequency 248 KHZ
Airport Weather Information & NOTAM
ADDS - METARS form results

(2003 UTC 20 July 2019)
Data provider http://aviationweather.gov/metar/data/
 
METAR text: KMIA 201953Z 12012KT 10SM FEW031 SCT080 BKN250 31/23 A3003 RMK AO2 LTG DSNT W-N SLP170 CB DSNT SW-NW-NE MOV NW T03110228
Conditions at: KMIA (MIAMI , FL, US) observed 1953 UTC 20 July 2019
Temperature: 31.1°C (88°F)
Dewpoint: 22.8°C (73°F) [RH = 61%]
Pressure (altimeter): 30.03 inches Hg (1017.0 mb)
[Sea-level pressure: 1017.0 mb]
Winds: from the ESE (120 degrees) at 14 MPH (12 knots; 6.2 m/s)
Visibility: 10 or more miles (16+ km)
Ceiling: 25000 feet AGL
Clouds: few clouds at 3100 feet AGL
scattered clouds at 8000 feet AGL
broken clouds at 25000 feet AGL
Weather: no significant weather observed at this time

METAR text: KMIA 201950Z 13011KT 10SM FEW031 SCT080 BKN250 31/23 A3003 RMK AO2 LTG DSNT W-N CB DSNT SW-NW-NE MOV NW
Conditions at: KMIA (MIAMI , FL, US) observed 1950 UTC 20 July 2019
Temperature: 31.0°C (88°F)
Dewpoint: 23.0°C (73°F) [RH = 63%]
Pressure (altimeter): 30.03 inches Hg (1017.0 mb)
Winds: from the SE (130 degrees) at 13 MPH (11 knots; 5.7 m/s)
Visibility: 10 or more miles (16+ km)
Ceiling: 25000 feet AGL
Clouds: few clouds at 3100 feet AGL
scattered clouds at 8000 feet AGL
broken clouds at 25000 feet AGL
Weather: no significant weather observed at this time

METAR text: KMIA 201925Z 14009G17KT 10SM VCTS FEW025 SCT080 BKN250 31/23 A3005 RMK AO2 LTG DSNT ALQDS CB DSNT NE-SE AND W-NW MOV NW T03110228
Conditions at: KMIA (MIAMI , FL, US) observed 1925 UTC 20 July 2019
Temperature: 31.1°C (88°F)
Dewpoint: 22.8°C (73°F) [RH = 61%]
Pressure (altimeter): 30.05 inches Hg (1017.7 mb)
Winds: from the SE (140 degrees) at 10 MPH (9 knots; 4.6 m/s)
gusting to 20 MPH (17 knots; 8.7 m/s)
Visibility: 10 or more miles (16+ km)
Ceiling: 25000 feet AGL
Clouds: few clouds at 2500 feet AGL
scattered clouds at 8000 feet AGL
broken clouds at 25000 feet AGL
Weather: VCTS  (thunderstorm in vicinity)

METAR text: KMIA 201912Z 13010KT 10SM FEW025 SCT080 BKN250 31/23 A3005 RMK AO2 LTG DSNT ALQDS CB DSNT NE-SE AND W-NW MOV NW T03110233
Conditions at: KMIA (MIAMI , FL, US) observed 1912 UTC 20 July 2019
Temperature: 31.1°C (88°F)
Dewpoint: 23.3°C (74°F) [RH = 63%]
Pressure (altimeter): 30.05 inches Hg (1017.7 mb)
Winds: from the SE (130 degrees) at 12 MPH (10 knots; 5.1 m/s)
Visibility: 10 or more miles (16+ km)
Ceiling: 25000 feet AGL
Clouds: few clouds at 2500 feet AGL
scattered clouds at 8000 feet AGL
broken clouds at 25000 feet AGL
Weather: no significant weather observed at this time

Forecast for: KMIA (MIAMI , FL, US)
Text: KMIA 201917Z 2019/2124 12010KT P6SM VCTS SCT025CB BKN040
Forecast period: 1900 to 2100 UTC 20 July 2019
Forecast type: FROM: standard forecast or significant change
Winds: from the ESE (120 degrees) at 12 MPH (10 knots; 5.1 m/s)
Visibility: 6 or more miles 10+ km)
Ceiling: 4000 feet AGL
Clouds: scattered clouds at 2500 feet AGL
broken clouds at 4000 feet AGL
Weather: VCTS  (thunderstorm in vicinity)
Text: FM202100 12011KT P6SM SCT025 BKN250
Forecast period: 2100 UTC 20 July 2019 to 0200 UTC 21 July 2019
Forecast type: FROM: standard forecast or significant change
Winds: from the ESE (120 degrees) at 13 MPH (11 knots; 5.7 m/s)
Visibility: 6 or more miles 10+ km)
Ceiling: 25000 feet AGL
Clouds: scattered clouds at 2500 feet AGL
broken clouds at 25000 feet AGL
Weather: no significant weather forecast for this period
Text: FM210200 11006KT P6SM VCSH SCT025 SCT050 BKN150
Forecast period: 0200 to 0600 UTC 21 July 2019
Forecast type: FROM: standard forecast or significant change
Winds: from the ESE (110 degrees) at 7 MPH (6 knots; 3.1 m/s)
Visibility: 6 or more miles 10+ km)
Ceiling: 15000 feet AGL
Clouds: scattered clouds at 2500 feet AGL
scattered clouds at 5000 feet AGL
broken clouds at 15000 feet AGL
Weather: VCSH  (showers in vicinity)
Text: FM210600 11007KT P6SM VCSH SCT025 SCT050 BKN150
Forecast period: 0600 to 1500 UTC 21 July 2019
Forecast type: FROM: standard forecast or significant change
Winds: from the ESE (110 degrees) at 8 MPH (7 knots; 3.6 m/s)
Visibility: 6 or more miles 10+ km)
Ceiling: 15000 feet AGL
Clouds: scattered clouds at 2500 feet AGL
scattered clouds at 5000 feet AGL
broken clouds at 15000 feet AGL
Weather: VCSH  (showers in vicinity)
Text: FM211500 12010KT P6SM VCSH SCT025 SCT050 BKN150
Forecast period: 1500 UTC 21 July 2019 to 0000 UTC 22 July 2019
Forecast type: FROM: standard forecast or significant change
Winds: from the ESE (120 degrees) at 12 MPH (10 knots; 5.1 m/s)
Visibility: 6 or more miles 10+ km)
Ceiling: 15000 feet AGL
Clouds: scattered clouds at 2500 feet AGL
scattered clouds at 5000 feet AGL
broken clouds at 15000 feet AGL
Weather: VCSH  (showers in vicinity)